Airfield :
LOGIN :

Register | Disclaimer

   EN    FR    IT 

 










Legend :    VFR   Marginal VFR   IFR   Intensive IFR   Very Intensive IFR
Visi :
Ceiling :
>= 8 km
>= 3000ft
5 to 8 km
1000 to 3000 ft
1500m to 5 km
500 to 1000 ft
800 to 1500m
200 to 500 ft
< 800m
< 200 ft
Symbols :   Thunderstorms  Fog  Heavy snow  Heavy precipitations  Wind > 20 kt
SIGMETs :     Misc.  Thunderstorms  Icing  Turbulence  Mountain Waves  Volcanic Ashes






- Airport Elevation : 56 ft
- IATA code : ILY


EGPI - Islay

CURRENT METAR :
  • 120520Z AUTO 20010KT 150V230 9999 FEW011/// SCT036/// 04/03 Q0987 RERA

EXPIRED METARs :
  • 120450Z AUTO 19008KT 140V250 9999 FEW011/// 04/03 Q0987 RERA
  • 120420Z AUTO 18009KT 150V220 9999 FEW030/// BKN041/// 04/03 Q0988 RERA
  • 120350Z AUTO 19010KT 150V220 9999 FEW026/// 04/03 Q0988 RERA
  • 120320Z AUTO 19011KT 150V220 9999 FEW015/// 04/03 Q0989 RERA
  • 120250Z AUTO 20014KT 170V230 9999 -RA BKN045/// 05/03 Q0989
  • 120220Z AUTO 21018KT 9999 -RA SCT015/// 05/04 Q0990

TAF TAF EGPI
Valid from the 12 at 06:00 until the 12 at 15:00 UTC


120502Z 1206/1215 20010KT 9999 BKN030
TEMPO 1206/1215 7000 RA SHRA BKN012
BECMG 1208/1211 14012KT
PROB40
TEMPO 1211/1215 4000 RADZ BKN006



MET'MAP, your aeronautical weather chart ! - Copyright ORBIFLY December 2007 - Disclaimer

ORBIFLY MET'MAP TEAM :

Programming & Development : Alexandra Zaïnal
Concept & original design : Baudouin d'Aumeries
Assistance for programming : Marc-Olivier Méhu
Technical & hardware support : Manuel Goepfert

Contact : metmap@orbifly.com




SOURCES & CREDITS :

   NOAA